<?xml version="1.0" encoding="UTF-8" standalone="no" ?>
<gpx xmlns="http://www.topografix.com/GPX/1/1" xmlns:xsi="http://www.w3.org/2001/XMLSchema-instance" xsi:schemaLocation="http://www.topografix.com/GPX/1/1 http://www.topografix.com/GPX/1/1/gpx.xsd" version="1.1" creator="VisuGPX - https://www.visugpx.com">
  <metadata>
    <name>Circuit du 28-06-2012</name>
    <desc><![CDATA[Circuit du 28-06-2012]]></desc>
  </metadata>
  <wpt lat="45.38037" lon="3.74747">
    <ele>653.90002441406</ele>
    <name><![CDATA[Start]]></name>
  </wpt>
  <wpt lat="45.3811" lon="3.74824">
    <ele>660</ele>
    <name><![CDATA[End]]></name>
  </wpt>
  <trk>
    <name><![CDATA[Circuit du 28-06-2012_1]]></name>
    <trkseg>
      <trkpt lat="45.38037" lon="3.74747">
        <ele>653.90002441406</ele>
        <time>2012-06-28T16:46:39Z</time>
      </trkpt>
      <trkpt lat="45.38003" lon="3.74699">
        <ele>656.09997558594</ele>
        <time>2012-06-28T16:46:58Z</time>
      </trkpt>
      <trkpt lat="45.37998" lon="3.74693">
        <ele>656.09997558594</ele>
        <time>2012-06-28T16:47:00Z</time>
      </trkpt>
      <trkpt lat="45.37994" lon="3.74687">
        <ele>657.90002441406</ele>
        <time>2012-06-28T16:47:04Z</time>
      </trkpt>
      <trkpt lat="45.37989" lon="3.74677">
        <ele>658.79998779297</ele>
        <time>2012-06-28T16:47:07Z</time>
      </trkpt>
      <trkpt lat="45.3798" lon="3.74659">
        <ele>658.20001220703</ele>
        <time>2012-06-28T16:47:14Z</time>
      </trkpt>
      <trkpt lat="45.37976" lon="3.74653">
        <ele>658.09997558594</ele>
        <time>2012-06-28T16:47:16Z</time>
      </trkpt>
      <trkpt lat="45.37972" lon="3.74648">
        <ele>657.09997558594</ele>
        <time>2012-06-28T16:47:19Z</time>
      </trkpt>
      <trkpt lat="45.37968" lon="3.7464">
        <ele>658.90002441406</ele>
        <time>2012-06-28T16:47:23Z</time>
      </trkpt>
      <trkpt lat="45.37966" lon="3.74634">
        <ele>660</ele>
        <time>2012-06-28T16:47:26Z</time>
      </trkpt>
      <trkpt lat="45.37961" lon="3.74629">
        <ele>658.70001220703</ele>
        <time>2012-06-28T16:47:29Z</time>
      </trkpt>
      <trkpt lat="45.37958" lon="3.74624">
        <ele>658.59997558594</ele>
        <time>2012-06-28T16:47:31Z</time>
      </trkpt>
      <trkpt lat="45.37953" lon="3.74619">
        <ele>658.59997558594</ele>
        <time>2012-06-28T16:47:34Z</time>
      </trkpt>
      <trkpt lat="45.3795" lon="3.74613">
        <ele>658.20001220703</ele>
        <time>2012-06-28T16:47:37Z</time>
      </trkpt>
      <trkpt lat="45.37945" lon="3.74608">
        <ele>656.29998779297</ele>
        <time>2012-06-28T16:47:39Z</time>
      </trkpt>
      <trkpt lat="45.3794" lon="3.74603">
        <ele>656.40002441406</ele>
        <time>2012-06-28T16:47:42Z</time>
      </trkpt>
      <trkpt lat="45.37935" lon="3.74599">
        <ele>655.70001220703</ele>
        <time>2012-06-28T16:47:45Z</time>
      </trkpt>
      <trkpt lat="45.37922" lon="3.74582">
        <ele>656.70001220703</ele>
        <time>2012-06-28T16:47:54Z</time>
      </trkpt>
      <trkpt lat="45.37897" lon="3.74545">
        <ele>659.70001220703</ele>
        <time>2012-06-28T16:48:09Z</time>
      </trkpt>
      <trkpt lat="45.37892" lon="3.74538">
        <ele>660.5</ele>
        <time>2012-06-28T16:48:11Z</time>
      </trkpt>
      <trkpt lat="45.3789" lon="3.74531">
        <ele>661.09997558594</ele>
        <time>2012-06-28T16:48:13Z</time>
      </trkpt>
      <trkpt lat="45.37885" lon="3.74522">
        <ele>661.5</ele>
        <time>2012-06-28T16:48:17Z</time>
      </trkpt>
      <trkpt lat="45.37881" lon="3.74513">
        <ele>662.09997558594</ele>
        <time>2012-06-28T16:48:20Z</time>
      </trkpt>
      <trkpt lat="45.37876" lon="3.74509">
        <ele>663</ele>
        <time>2012-06-28T16:48:24Z</time>
      </trkpt>
      <trkpt lat="45.37873" lon="3.74503">
        <ele>662.79998779297</ele>
        <time>2012-06-28T16:48:27Z</time>
      </trkpt>
      <trkpt lat="45.37871" lon="3.74496">
        <ele>663.70001220703</ele>
        <time>2012-06-28T16:48:30Z</time>
      </trkpt>
      <trkpt lat="45.37863" lon="3.74483">
        <ele>664.09997558594</ele>
        <time>2012-06-28T16:48:34Z</time>
      </trkpt>
      <trkpt lat="45.3786" lon="3.74476">
        <ele>664.29998779297</ele>
        <time>2012-06-28T16:48:36Z</time>
      </trkpt>
      <trkpt lat="45.37856" lon="3.74472">
        <ele>664.40002441406</ele>
        <time>2012-06-28T16:48:39Z</time>
      </trkpt>
      <trkpt lat="45.37852" lon="3.74465">
        <ele>664.29998779297</ele>
        <time>2012-06-28T16:48:43Z</time>
      </trkpt>
      <trkpt lat="45.37849" lon="3.74457">
        <ele>663.90002441406</ele>
        <time>2012-06-28T16:48:46Z</time>
      </trkpt>
      <trkpt lat="45.37849" lon="3.74448">
        <ele>664.70001220703</ele>
        <time>2012-06-28T16:48:49Z</time>
      </trkpt>
      <trkpt lat="45.37846" lon="3.74441">
        <ele>664.29998779297</ele>
        <time>2012-06-28T16:48:51Z</time>
      </trkpt>
      <trkpt lat="45.37845" lon="3.74432">
        <ele>665</ele>
        <time>2012-06-28T16:48:54Z</time>
      </trkpt>
      <trkpt lat="45.37844" lon="3.74425">
        <ele>664.90002441406</ele>
        <time>2012-06-28T16:48:56Z</time>
      </trkpt>
      <trkpt lat="45.37841" lon="3.74418">
        <ele>665.59997558594</ele>
        <time>2012-06-28T16:48:59Z</time>
      </trkpt>
      <trkpt lat="45.37841" lon="3.74412">
        <ele>665.70001220703</ele>
        <time>2012-06-28T16:49:02Z</time>
      </trkpt>
      <trkpt lat="45.37839" lon="3.74405">
        <ele>664.29998779297</ele>
        <time>2012-06-28T16:49:04Z</time>
      </trkpt>
      <trkpt lat="45.37836" lon="3.74398">
        <ele>663.59997558594</ele>
        <time>2012-06-28T16:49:07Z</time>
      </trkpt>
      <trkpt lat="45.37835" lon="3.74387">
        <ele>664.70001220703</ele>
        <time>2012-06-28T16:49:10Z</time>
      </trkpt>
      <trkpt lat="45.37835" lon="3.74379">
        <ele>664.70001220703</ele>
        <time>2012-06-28T16:49:13Z</time>
      </trkpt>
      <trkpt lat="45.37835" lon="3.74372">
        <ele>664.90002441406</ele>
        <time>2012-06-28T16:49:15Z</time>
      </trkpt>
      <trkpt lat="45.37833" lon="3.74359">
        <ele>665.29998779297</ele>
        <time>2012-06-28T16:49:19Z</time>
      </trkpt>
      <trkpt lat="45.37833" lon="3.74352">
        <ele>664.20001220703</ele>
        <time>2012-06-28T16:49:22Z</time>
      </trkpt>
      <trkpt lat="45.37828" lon="3.74344">
        <ele>663.29998779297</ele>
        <time>2012-06-28T16:49:25Z</time>
      </trkpt>
      <trkpt lat="45.37826" lon="3.74338">
        <ele>663.09997558594</ele>
        <time>2012-06-28T16:49:28Z</time>
      </trkpt>
      <trkpt lat="45.37823" lon="3.74331">
        <ele>663.29998779297</ele>
        <time>2012-06-28T16:49:30Z</time>
      </trkpt>
      <trkpt lat="45.37821" lon="3.74321">
        <ele>663.29998779297</ele>
        <time>2012-06-28T16:49:33Z</time>
      </trkpt>
      <trkpt lat="45.3781" lon="3.74303">
        <ele>653</ele>
        <time>2012-06-28T16:49:38Z</time>
      </trkpt>
      <trkpt lat="45.37806" lon="3.74298">
        <ele>653.79998779297</ele>
        <time>2012-06-28T16:49:42Z</time>
      </trkpt>
      <trkpt lat="45.37805" lon="3.74292">
        <ele>655.29998779297</ele>
        <time>2012-06-28T16:49:45Z</time>
      </trkpt>
      <trkpt lat="45.37805" lon="3.74283">
        <ele>656</ele>
        <time>2012-06-28T16:49:48Z</time>
      </trkpt>
      <trkpt lat="45.37805" lon="3.74274">
        <ele>656.70001220703</ele>
        <time>2012-06-28T16:49:51Z</time>
      </trkpt>
      <trkpt lat="45.37807" lon="3.74266">
        <ele>657.20001220703</ele>
        <time>2012-06-28T16:49:54Z</time>
      </trkpt>
      <trkpt lat="45.37806" lon="3.74259">
        <ele>657.40002441406</ele>
        <time>2012-06-28T16:49:57Z</time>
      </trkpt>
      <trkpt lat="45.37805" lon="3.74241">
        <ele>659.09997558594</ele>
        <time>2012-06-28T16:50:03Z</time>
      </trkpt>
      <trkpt lat="45.37806" lon="3.74234">
        <ele>659.70001220703</ele>
        <time>2012-06-28T16:50:05Z</time>
      </trkpt>
      <trkpt lat="45.37805" lon="3.74226">
        <ele>660.90002441406</ele>
        <time>2012-06-28T16:50:07Z</time>
      </trkpt>
      <trkpt lat="45.37803" lon="3.74219">
        <ele>661.20001220703</ele>
        <time>2012-06-28T16:50:09Z</time>
      </trkpt>
      <trkpt lat="45.37803" lon="3.74211">
        <ele>661.5</ele>
        <time>2012-06-28T16:50:11Z</time>
      </trkpt>
      <trkpt lat="45.37799" lon="3.74206">
        <ele>663.09997558594</ele>
        <time>2012-06-28T16:50:13Z</time>
      </trkpt>
      <trkpt lat="45.37795" lon="3.74199">
        <ele>664</ele>
        <time>2012-06-28T16:50:15Z</time>
      </trkpt>
      <trkpt lat="45.37789" lon="3.7419">
        <ele>665.09997558594</ele>
        <time>2012-06-28T16:50:18Z</time>
      </trkpt>
      <trkpt lat="45.3779" lon="3.74183">
        <ele>665.20001220703</ele>
        <time>2012-06-28T16:50:20Z</time>
      </trkpt>
      <trkpt lat="45.37785" lon="3.74171">
        <ele>665.90002441406</ele>
        <time>2012-06-28T16:50:24Z</time>
      </trkpt>
      <trkpt lat="45.37784" lon="3.74165">
        <ele>666.79998779297</ele>
        <time>2012-06-28T16:50:26Z</time>
      </trkpt>
      <trkpt lat="45.37781" lon="3.74159">
        <ele>665.59997558594</ele>
        <time>2012-06-28T16:50:28Z</time>
      </trkpt>
      <trkpt lat="45.37782" lon="3.74152">
        <ele>666.5</ele>
        <time>2012-06-28T16:50:32Z</time>
      </trkpt>
      <trkpt lat="45.37781" lon="3.74144">
        <ele>666.29998779297</ele>
        <time>2012-06-28T16:50:36Z</time>
      </trkpt>
      <trkpt lat="45.37778" lon="3.74138">
        <ele>665.29998779297</ele>
        <time>2012-06-28T16:50:38Z</time>
      </trkpt>
      <trkpt lat="45.37775" lon="3.74133">
        <ele>665.20001220703</ele>
        <time>2012-06-28T16:50:44Z</time>
      </trkpt>
      <trkpt lat="45.37772" lon="3.74125">
        <ele>664.79998779297</ele>
        <time>2012-06-28T16:50:48Z</time>
      </trkpt>
      <trkpt lat="45.37766" lon="3.74113">
        <ele>664.79998779297</ele>
        <time>2012-06-28T16:50:51Z</time>
      </trkpt>
      <trkpt lat="45.37762" lon="3.74105">
        <ele>665.09997558594</ele>
        <time>2012-06-28T16:50:53Z</time>
      </trkpt>
      <trkpt lat="45.37758" lon="3.74083">
        <ele>664</ele>
        <time>2012-06-28T16:50:59Z</time>
      </trkpt>
      <trkpt lat="45.37757" lon="3.74075">
        <ele>664.70001220703</ele>
        <time>2012-06-28T16:51:01Z</time>
      </trkpt>
      <trkpt lat="45.37756" lon="3.74069">
        <ele>666</ele>
        <time>2012-06-28T16:51:04Z</time>
      </trkpt>
      <trkpt lat="45.37753" lon="3.74064">
        <ele>666.29998779297</ele>
        <time>2012-06-28T16:51:07Z</time>
      </trkpt>
      <trkpt lat="45.3775" lon="3.74058">
        <ele>666.5</ele>
        <time>2012-06-28T16:51:10Z</time>
      </trkpt>
      <trkpt lat="45.37749" lon="3.74051">
        <ele>666.79998779297</ele>
        <time>2012-06-28T16:51:12Z</time>
      </trkpt>
      <trkpt lat="45.37746" lon="3.74047">
        <ele>666.5</ele>
        <time>2012-06-28T16:51:13Z</time>
      </trkpt>
      <trkpt lat="45.37741" lon="3.7404">
        <ele>667.70001220703</ele>
        <time>2012-06-28T16:51:16Z</time>
      </trkpt>
      <trkpt lat="45.37736" lon="3.74035">
        <ele>667.09997558594</ele>
        <time>2012-06-28T16:51:18Z</time>
      </trkpt>
      <trkpt lat="45.37732" lon="3.74029">
        <ele>665.5</ele>
        <time>2012-06-28T16:51:21Z</time>
      </trkpt>
      <trkpt lat="45.37728" lon="3.7402">
        <ele>665.79998779297</ele>
        <time>2012-06-28T16:51:24Z</time>
      </trkpt>
      <trkpt lat="45.37725" lon="3.74014">
        <ele>666.09997558594</ele>
        <time>2012-06-28T16:51:27Z</time>
      </trkpt>
      <trkpt lat="45.37724" lon="3.74007">
        <ele>667.20001220703</ele>
        <time>2012-06-28T16:51:29Z</time>
      </trkpt>
      <trkpt lat="45.37721" lon="3.73997">
        <ele>668</ele>
        <time>2012-06-28T16:51:32Z</time>
      </trkpt>
      <trkpt lat="45.37718" lon="3.73991">
        <ele>668.79998779297</ele>
        <time>2012-06-28T16:51:35Z</time>
      </trkpt>
      <trkpt lat="45.37715" lon="3.73984">
        <ele>668.59997558594</ele>
        <time>2012-06-28T16:51:39Z</time>
      </trkpt>
      <trkpt lat="45.37713" lon="3.73977">
        <ele>668.09997558594</ele>
        <time>2012-06-28T16:51:41Z</time>
      </trkpt>
      <trkpt lat="45.37709" lon="3.73968">
        <ele>667.29998779297</ele>
        <time>2012-06-28T16:51:44Z</time>
      </trkpt>
      <trkpt lat="45.37705" lon="3.73964">
        <ele>667.09997558594</ele>
        <time>2012-06-28T16:51:46Z</time>
      </trkpt>
      <trkpt lat="45.37701" lon="3.73957">
        <ele>667.90002441406</ele>
        <time>2012-06-28T16:51:48Z</time>
      </trkpt>
      <trkpt lat="45.377" lon="3.73946">
        <ele>668.79998779297</ele>
        <time>2012-06-28T16:51:51Z</time>
      </trkpt>
      <trkpt lat="45.37696" lon="3.73943">
        <ele>668.29998779297</ele>
        <time>2012-06-28T16:51:53Z</time>
      </trkpt>
      <trkpt lat="45.37692" lon="3.73938">
        <ele>668.29998779297</ele>
        <time>2012-06-28T16:51:55Z</time>
      </trkpt>
      <trkpt lat="45.37689" lon="3.73929">
        <ele>667.20001220703</ele>
        <time>2012-06-28T16:51:58Z</time>
      </trkpt>
      <trkpt lat="45.37685" lon="3.73924">
        <ele>666.90002441406</ele>
        <time>2012-06-28T16:52:00Z</time>
      </trkpt>
      <trkpt lat="45.37679" lon="3.73914">
        <ele>664.5</ele>
        <time>2012-06-28T16:52:03Z</time>
      </trkpt>
      <trkpt lat="45.37667" lon="3.73902">
        <ele>657.79998779297</ele>
        <time>2012-06-28T16:52:08Z</time>
      </trkpt>
      <trkpt lat="45.37664" lon="3.73896">
        <ele>655.09997558594</ele>
        <time>2012-06-28T16:52:10Z</time>
      </trkpt>
      <trkpt lat="45.37661" lon="3.73889">
        <ele>654.20001220703</ele>
        <time>2012-06-28T16:52:13Z</time>
      </trkpt>
      <trkpt lat="45.37659" lon="3.73881">
        <ele>652.09997558594</ele>
        <time>2012-06-28T16:52:16Z</time>
      </trkpt>
      <trkpt lat="45.37657" lon="3.73874">
        <ele>651.40002441406</ele>
        <time>2012-06-28T16:52:18Z</time>
      </trkpt>
      <trkpt lat="45.37652" lon="3.73867">
        <ele>652.59997558594</ele>
        <time>2012-06-28T16:52:21Z</time>
      </trkpt>
      <trkpt lat="45.37648" lon="3.73859">
        <ele>652.40002441406</ele>
        <time>2012-06-28T16:52:24Z</time>
      </trkpt>
      <trkpt lat="45.37643" lon="3.73855">
        <ele>651.5</ele>
        <time>2012-06-28T16:52:26Z</time>
      </trkpt>
      <trkpt lat="45.3764" lon="3.73849">
        <ele>652.90002441406</ele>
        <time>2012-06-28T16:52:29Z</time>
      </trkpt>
      <trkpt lat="45.37637" lon="3.73842">
        <ele>653.29998779297</ele>
        <time>2012-06-28T16:52:32Z</time>
      </trkpt>
      <trkpt lat="45.37632" lon="3.73837">
        <ele>653.90002441406</ele>
        <time>2012-06-28T16:52:34Z</time>
      </trkpt>
      <trkpt lat="45.37629" lon="3.73832">
        <ele>653.90002441406</ele>
        <time>2012-06-28T16:52:36Z</time>
      </trkpt>
      <trkpt lat="45.37626" lon="3.73819">
        <ele>657.09997558594</ele>
        <time>2012-06-28T16:52:41Z</time>
      </trkpt>
      <trkpt lat="45.37621" lon="3.73811">
        <ele>658</ele>
        <time>2012-06-28T16:52:44Z</time>
      </trkpt>
      <trkpt lat="45.37618" lon="3.73806">
        <ele>657.40002441406</ele>
        <time>2012-06-28T16:52:47Z</time>
      </trkpt>
      <trkpt lat="45.37617" lon="3.73799">
        <ele>657.70001220703</ele>
        <time>2012-06-28T16:52:49Z</time>
      </trkpt>
      <trkpt lat="45.37613" lon="3.73792">
        <ele>657.09997558594</ele>
        <time>2012-06-28T16:52:52Z</time>
      </trkpt>
      <trkpt lat="45.37611" lon="3.73783">
        <ele>655.5</ele>
        <time>2012-06-28T16:52:55Z</time>
      </trkpt>
      <trkpt lat="45.3761" lon="3.73777">
        <ele>655.20001220703</ele>
        <time>2012-06-28T16:52:57Z</time>
      </trkpt>
      <trkpt lat="45.37607" lon="3.73769">
        <ele>656.90002441406</ele>
        <time>2012-06-28T16:53:00Z</time>
      </trkpt>
      <trkpt lat="45.37605" lon="3.73761">
        <ele>657.70001220703</ele>
        <time>2012-06-28T16:53:03Z</time>
      </trkpt>
      <trkpt lat="45.37596" lon="3.73746">
        <ele>658.5</ele>
        <time>2012-06-28T16:53:09Z</time>
      </trkpt>
      <trkpt lat="45.37589" lon="3.73733">
        <ele>659.09997558594</ele>
        <time>2012-06-28T16:53:14Z</time>
      </trkpt>
      <trkpt lat="45.37586" lon="3.73726">
        <ele>658.70001220703</ele>
        <time>2012-06-28T16:53:16Z</time>
      </trkpt>
      <trkpt lat="45.37583" lon="3.73719">
        <ele>659.29998779297</ele>
        <time>2012-06-28T16:53:19Z</time>
      </trkpt>
      <trkpt lat="45.37578" lon="3.73706">
        <ele>660.29998779297</ele>
        <time>2012-06-28T16:53:25Z</time>
      </trkpt>
      <trkpt lat="45.37575" lon="3.73701">
        <ele>659.90002441406</ele>
        <time>2012-06-28T16:53:27Z</time>
      </trkpt>
      <trkpt lat="45.37571" lon="3.73696">
        <ele>660.29998779297</ele>
        <time>2012-06-28T16:53:29Z</time>
      </trkpt>
      <trkpt lat="45.37565" lon="3.73684">
        <ele>659.5</ele>
        <time>2012-06-28T16:53:34Z</time>
      </trkpt>
      <trkpt lat="45.37562" lon="3.73679">
        <ele>659.90002441406</ele>
        <time>2012-06-28T16:53:36Z</time>
      </trkpt>
      <trkpt lat="45.37559" lon="3.73671">
        <ele>660.40002441406</ele>
        <time>2012-06-28T16:53:39Z</time>
      </trkpt>
      <trkpt lat="45.37554" lon="3.73663">
        <ele>659.79998779297</ele>
        <time>2012-06-28T16:53:41Z</time>
      </trkpt>
      <trkpt lat="45.37552" lon="3.73656">
        <ele>660.70001220703</ele>
        <time>2012-06-28T16:53:44Z</time>
      </trkpt>
      <trkpt lat="45.3755" lon="3.7365">
        <ele>661.09997558594</ele>
        <time>2012-06-28T16:53:46Z</time>
      </trkpt>
      <trkpt lat="45.37547" lon="3.73643">
        <ele>660.79998779297</ele>
        <time>2012-06-28T16:53:49Z</time>
      </trkpt>
      <trkpt lat="45.37545" lon="3.73637">
        <ele>661.20001220703</ele>
        <time>2012-06-28T16:53:51Z</time>
      </trkpt>
      <trkpt lat="45.37544" lon="3.73631">
        <ele>662</ele>
        <time>2012-06-28T16:53:53Z</time>
      </trkpt>
      <trkpt lat="45.37538" lon="3.73616">
        <ele>664.40002441406</ele>
        <time>2012-06-28T16:53:59Z</time>
      </trkpt>
      <trkpt lat="45.37537" lon="3.7361">
        <ele>664.79998779297</ele>
        <time>2012-06-28T16:54:01Z</time>
      </trkpt>
      <trkpt lat="45.37535" lon="3.73603">
        <ele>666.09997558594</ele>
        <time>2012-06-28T16:54:03Z</time>
      </trkpt>
      <trkpt lat="45.3753" lon="3.73578">
        <ele>668.20001220703</ele>
        <time>2012-06-28T16:54:11Z</time>
      </trkpt>
      <trkpt lat="45.37528" lon="3.7357">
        <ele>668.90002441406</ele>
        <time>2012-06-28T16:54:13Z</time>
      </trkpt>
      <trkpt lat="45.37525" lon="3.73563">
        <ele>669.79998779297</ele>
        <time>2012-06-28T16:54:15Z</time>
      </trkpt>
      <trkpt lat="45.37527" lon="3.73555">
        <ele>669.40002441406</ele>
        <time>2012-06-28T16:54:18Z</time>
      </trkpt>
      <trkpt lat="45.37527" lon="3.73544">
        <ele>669.79998779297</ele>
        <time>2012-06-28T16:54:22Z</time>
      </trkpt>
      <trkpt lat="45.37528" lon="3.73537">
        <ele>669.70001220703</ele>
        <time>2012-06-28T16:54:24Z</time>
      </trkpt>
      <trkpt lat="45.3753" lon="3.7353">
        <ele>669.29998779297</ele>
        <time>2012-06-28T16:54:26Z</time>
      </trkpt>
      <trkpt lat="45.3753" lon="3.73521">
        <ele>668.90002441406</ele>
        <time>2012-06-28T16:54:29Z</time>
      </trkpt>
      <trkpt lat="45.37533" lon="3.73515">
        <ele>669.29998779297</ele>
        <time>2012-06-28T16:54:31Z</time>
      </trkpt>
      <trkpt lat="45.37533" lon="3.73506">
        <ele>669.70001220703</ele>
        <time>2012-06-28T16:54:34Z</time>
      </trkpt>
      <trkpt lat="45.37532" lon="3.735">
        <ele>671.29998779297</ele>
        <time>2012-06-28T16:54:36Z</time>
      </trkpt>
      <trkpt lat="45.37532" lon="3.73492">
        <ele>671.29998779297</ele>
        <time>2012-06-28T16:54:39Z</time>
      </trkpt>
      <trkpt lat="45.37533" lon="3.73483">
        <ele>670.70001220703</ele>
        <time>2012-06-28T16:54:42Z</time>
      </trkpt>
      <trkpt lat="45.37532" lon="3.73476">
        <ele>671.79998779297</ele>
        <time>2012-06-28T16:54:45Z</time>
      </trkpt>
      <trkpt lat="45.37533" lon="3.73466">
        <ele>672.40002441406</ele>
        <time>2012-06-28T16:54:48Z</time>
      </trkpt>
      <trkpt lat="45.37532" lon="3.73459">
        <ele>673.90002441406</ele>
        <time>2012-06-28T16:54:50Z</time>
      </trkpt>
      <trkpt lat="45.3753" lon="3.73451">
        <ele>673.70001220703</ele>
        <time>2012-06-28T16:54:52Z</time>
      </trkpt>
      <trkpt lat="45.3753" lon="3.73444">
        <ele>671.79998779297</ele>
        <time>2012-06-28T16:54:54Z</time>
      </trkpt>
      <trkpt lat="45.37528" lon="3.73438">
        <ele>674.40002441406</ele>
        <time>2012-06-28T16:54:57Z</time>
      </trkpt>
      <trkpt lat="45.37526" lon="3.73432">
        <ele>673.70001220703</ele>
        <time>2012-06-28T16:55:00Z</time>
      </trkpt>
      <trkpt lat="45.37523" lon="3.73424">
        <ele>672.29998779297</ele>
        <time>2012-06-28T16:55:04Z</time>
      </trkpt>
      <trkpt lat="45.37518" lon="3.73414">
        <ele>673</ele>
        <time>2012-06-28T16:55:07Z</time>
      </trkpt>
      <trkpt lat="45.37514" lon="3.73405">
        <ele>672.5</ele>
        <time>2012-06-28T16:55:10Z</time>
      </trkpt>
      <trkpt lat="45.3751" lon="3.73399">
        <ele>672.09997558594</ele>
        <time>2012-06-28T16:55:12Z</time>
      </trkpt>
      <trkpt lat="45.37511" lon="3.73393">
        <ele>671.5</ele>
        <time>2012-06-28T16:55:14Z</time>
      </trkpt>
      <trkpt lat="45.37509" lon="3.73385">
        <ele>671.09997558594</ele>
        <time>2012-06-28T16:55:17Z</time>
      </trkpt>
      <trkpt lat="45.37507" lon="3.73379">
        <ele>675.29998779297</ele>
        <time>2012-06-28T16:55:19Z</time>
      </trkpt>
      <trkpt lat="45.37504" lon="3.73373">
        <ele>676.20001220703</ele>
        <time>2012-06-28T16:55:22Z</time>
      </trkpt>
      <trkpt lat="45.37501" lon="3.73367">
        <ele>675.70001220703</ele>
        <time>2012-06-28T16:55:24Z</time>
      </trkpt>
      <trkpt lat="45.37495" lon="3.73361">
        <ele>674.5</ele>
        <time>2012-06-28T16:55:27Z</time>
      </trkpt>
      <trkpt lat="45.37485" lon="3.7335">
        <ele>670.5</ele>
        <time>2012-06-28T16:55:33Z</time>
      </trkpt>
      <trkpt lat="45.37482" lon="3.73345">
        <ele>669.20001220703</ele>
        <time>2012-06-28T16:55:35Z</time>
      </trkpt>
      <trkpt lat="45.37476" lon="3.73339">
        <ele>671.70001220703</ele>
        <time>2012-06-28T16:55:38Z</time>
      </trkpt>
      <trkpt lat="45.37472" lon="3.73335">
        <ele>671.29998779297</ele>
        <time>2012-06-28T16:55:41Z</time>
      </trkpt>
      <trkpt lat="45.37468" lon="3.7333">
        <ele>671.70001220703</ele>
        <time>2012-06-28T16:55:43Z</time>
      </trkpt>
      <trkpt lat="45.37458" lon="3.73325">
        <ele>672.20001220703</ele>
        <time>2012-06-28T16:55:48Z</time>
      </trkpt>
      <trkpt lat="45.37454" lon="3.7332">
        <ele>672.09997558594</ele>
        <time>2012-06-28T16:55:51Z</time>
      </trkpt>
      <trkpt lat="45.37449" lon="3.73313">
        <ele>671.90002441406</ele>
        <time>2012-06-28T16:55:53Z</time>
      </trkpt>
      <trkpt lat="45.37444" lon="3.73308">
        <ele>671.40002441406</ele>
        <time>2012-06-28T16:55:56Z</time>
      </trkpt>
      <trkpt lat="45.3744" lon="3.73304">
        <ele>671.29998779297</ele>
        <time>2012-06-28T16:55:58Z</time>
      </trkpt>
      <trkpt lat="45.37436" lon="3.733">
        <ele>670.70001220703</ele>
        <time>2012-06-28T16:56:12Z</time>
      </trkpt>
      <trkpt lat="45.37432" lon="3.73293">
        <ele>669.40002441406</ele>
        <time>2012-06-28T16:56:14Z</time>
      </trkpt>
      <trkpt lat="45.37428" lon="3.73288">
        <ele>669.5</ele>
        <time>2012-06-28T16:56:17Z</time>
      </trkpt>
      <trkpt lat="45.37425" lon="3.73283">
        <ele>669.29998779297</ele>
        <time>2012-06-28T16:56:20Z</time>
      </trkpt>
      <trkpt lat="45.37422" lon="3.73279">
        <ele>668.29998779297</ele>
        <time>2012-06-28T16:56:22Z</time>
      </trkpt>
      <trkpt lat="45.37415" lon="3.73275">
        <ele>669.90002441406</ele>
        <time>2012-06-28T16:56:24Z</time>
      </trkpt>
      <trkpt lat="45.37409" lon="3.73269">
        <ele>669.70001220703</ele>
        <time>2012-06-28T16:56:26Z</time>
      </trkpt>
      <trkpt lat="45.37406" lon="3.73265">
        <ele>671.09997558594</ele>
        <time>2012-06-28T16:56:27Z</time>
      </trkpt>
      <trkpt lat="45.37402" lon="3.7326">
        <ele>671.90002441406</ele>
        <time>2012-06-28T16:56:29Z</time>
      </trkpt>
      <trkpt lat="45.37398" lon="3.73256">
        <ele>672.40002441406</ele>
        <time>2012-06-28T16:56:31Z</time>
      </trkpt>
      <trkpt lat="45.37393" lon="3.73251">
        <ele>671.70001220703</ele>
        <time>2012-06-28T16:56:33Z</time>
      </trkpt>
      <trkpt lat="45.3739" lon="3.73246">
        <ele>671.59997558594</ele>
        <time>2012-06-28T16:56:35Z</time>
      </trkpt>
      <trkpt lat="45.37387" lon="3.73239">
        <ele>671.5</ele>
        <time>2012-06-28T16:56:37Z</time>
      </trkpt>
      <trkpt lat="45.37385" lon="3.73231">
        <ele>672.70001220703</ele>
        <time>2012-06-28T16:56:40Z</time>
      </trkpt>
      <trkpt lat="45.37384" lon="3.73224">
        <ele>674.29998779297</ele>
        <time>2012-06-28T16:56:50Z</time>
      </trkpt>
      <trkpt lat="45.37378" lon="3.73211">
        <ele>675.79998779297</ele>
        <time>2012-06-28T16:57:04Z</time>
      </trkpt>
      <trkpt lat="45.37379" lon="3.73205">
        <ele>675.59997558594</ele>
        <time>2012-06-28T16:57:08Z</time>
      </trkpt>
      <trkpt lat="45.37382" lon="3.73179">
        <ele>677.40002441406</ele>
        <time>2012-06-28T16:57:14Z</time>
      </trkpt>
      <trkpt lat="45.37384" lon="3.73172">
        <ele>679.09997558594</ele>
        <time>2012-06-28T16:57:15Z</time>
      </trkpt>
      <trkpt lat="45.37384" lon="3.73165">
        <ele>679.90002441406</ele>
        <time>2012-06-28T16:57:16Z</time>
      </trkpt>
      <trkpt lat="45.37381" lon="3.73158">
        <ele>680.59997558594</ele>
        <time>2012-06-28T16:57:18Z</time>
      </trkpt>
      <trkpt lat="45.3738" lon="3.73152">
        <ele>680.79998779297</ele>
        <time>2012-06-28T16:57:21Z</time>
      </trkpt>
      <trkpt lat="45.37379" lon="3.73141">
        <ele>681.5</ele>
        <time>2012-06-28T16:57:24Z</time>
      </trkpt>
      <trkpt lat="45.37377" lon="3.73134">
        <ele>682.70001220703</ele>
        <time>2012-06-28T16:57:25Z</time>
      </trkpt>
      <trkpt lat="45.37371" lon="3.73128">
        <ele>678.5</ele>
        <time>2012-06-28T16:57:30Z</time>
      </trkpt>
      <trkpt lat="45.3737" lon="3.73136">
        <ele>679.79998779297</ele>
        <time>2012-06-28T16:57:37Z</time>
      </trkpt>
      <trkpt lat="45.37371" lon="3.73149">
        <ele>680.90002441406</ele>
        <time>2012-06-28T16:57:42Z</time>
      </trkpt>
      <trkpt lat="45.3737" lon="3.73161">
        <ele>681.79998779297</ele>
        <time>2012-06-28T16:57:46Z</time>
      </trkpt>
      <trkpt lat="45.37374" lon="3.73166">
        <ele>681.79998779297</ele>
        <time>2012-06-28T16:57:48Z</time>
      </trkpt>
      <trkpt lat="45.37375" lon="3.73172">
        <ele>682.79998779297</ele>
        <time>2012-06-28T16:57:51Z</time>
      </trkpt>
      <trkpt lat="45.37373" lon="3.73182">
        <ele>683.5</ele>
        <time>2012-06-28T16:57:56Z</time>
      </trkpt>
      <trkpt lat="45.37377" lon="3.73187">
        <ele>683.29998779297</ele>
        <time>2012-06-28T16:57:59Z</time>
      </trkpt>
      <trkpt lat="45.37378" lon="3.73195">
        <ele>684.59997558594</ele>
        <time>2012-06-28T16:58:03Z</time>
      </trkpt>
      <trkpt lat="45.37382" lon="3.73203">
        <ele>685.5</ele>
        <time>2012-06-28T16:58:06Z</time>
      </trkpt>
      <trkpt lat="45.37384" lon="3.73213">
        <ele>687.20001220703</ele>
        <time>2012-06-28T16:58:09Z</time>
      </trkpt>
      <trkpt lat="45.37387" lon="3.73218">
        <ele>688.20001220703</ele>
        <time>2012-06-28T16:58:11Z</time>
      </trkpt>
      <trkpt lat="45.37393" lon="3.73231">
        <ele>689.09997558594</ele>
        <time>2012-06-28T16:58:15Z</time>
      </trkpt>
      <trkpt lat="45.37393" lon="3.73238">
        <ele>689.59997558594</ele>
        <time>2012-06-28T16:58:19Z</time>
      </trkpt>
      <trkpt lat="45.37394" lon="3.73246">
        <ele>689.59997558594</ele>
        <time>2012-06-28T16:58:24Z</time>
      </trkpt>
      <trkpt lat="45.37395" lon="3.73255">
        <ele>689.20001220703</ele>
        <time>2012-06-28T16:58:27Z</time>
      </trkpt>
      <trkpt lat="45.37401" lon="3.73261">
        <ele>689</ele>
        <time>2012-06-28T16:58:29Z</time>
      </trkpt>
      <trkpt lat="45.37406" lon="3.73268">
        <ele>689.79998779297</ele>
        <time>2012-06-28T16:58:31Z</time>
      </trkpt>
      <trkpt lat="45.37409" lon="3.73274">
        <ele>690.20001220703</ele>
        <time>2012-06-28T16:58:34Z</time>
      </trkpt>
      <trkpt lat="45.37411" lon="3.7328">
        <ele>690.20001220703</ele>
        <time>2012-06-28T16:58:37Z</time>
      </trkpt>
      <trkpt lat="45.37417" lon="3.73285">
        <ele>688.09997558594</ele>
        <time>2012-06-28T16:58:40Z</time>
      </trkpt>
      <trkpt lat="45.3742" lon="3.7329">
        <ele>687.59997558594</ele>
        <time>2012-06-28T16:58:44Z</time>
      </trkpt>
      <trkpt lat="45.37431" lon="3.73301">
        <ele>682.29998779297</ele>
        <time>2012-06-28T16:58:52Z</time>
      </trkpt>
      <trkpt lat="45.37435" lon="3.73305">
        <ele>678.78741455078</ele>
        <time>2012-06-28T16:58:53Z</time>
      </trkpt>
      <trkpt lat="45.3744" lon="3.73311">
        <ele>675.79998779297</ele>
        <time>2012-06-28T16:58:55Z</time>
      </trkpt>
      <trkpt lat="45.37446" lon="3.73317">
        <ele>675.40002441406</ele>
        <time>2012-06-28T16:58:58Z</time>
      </trkpt>
      <trkpt lat="45.37451" lon="3.73323">
        <ele>674.20001220703</ele>
        <time>2012-06-28T16:59:01Z</time>
      </trkpt>
      <trkpt lat="45.37457" lon="3.73326">
        <ele>673.5</ele>
        <time>2012-06-28T16:59:04Z</time>
      </trkpt>
      <trkpt lat="45.37461" lon="3.73331">
        <ele>674.90002441406</ele>
        <time>2012-06-28T16:59:07Z</time>
      </trkpt>
      <trkpt lat="45.37466" lon="3.73334">
        <ele>675.79998779297</ele>
        <time>2012-06-28T16:59:10Z</time>
      </trkpt>
      <trkpt lat="45.3747" lon="3.7334">
        <ele>676.79998779297</ele>
        <time>2012-06-28T16:59:14Z</time>
      </trkpt>
      <trkpt lat="45.37478" lon="3.73348">
        <ele>678.09997558594</ele>
        <time>2012-06-28T16:59:21Z</time>
      </trkpt>
      <trkpt lat="45.37488" lon="3.7336">
        <ele>674.09997558594</ele>
        <time>2012-06-28T16:59:25Z</time>
      </trkpt>
      <trkpt lat="45.37491" lon="3.73365">
        <ele>671.29998779297</ele>
        <time>2012-06-28T16:59:27Z</time>
      </trkpt>
      <trkpt lat="45.37498" lon="3.73374">
        <ele>670.59997558594</ele>
        <time>2012-06-28T16:59:30Z</time>
      </trkpt>
      <trkpt lat="45.37501" lon="3.73379">
        <ele>670.40002441406</ele>
        <time>2012-06-28T16:59:32Z</time>
      </trkpt>
      <trkpt lat="45.37505" lon="3.73386">
        <ele>668.70001220703</ele>
        <time>2012-06-28T16:59:35Z</time>
      </trkpt>
      <trkpt lat="45.37509" lon="3.73393">
        <ele>668.70001220703</ele>
        <time>2012-06-28T16:59:38Z</time>
      </trkpt>
      <trkpt lat="45.37513" lon="3.73408">
        <ele>663.70001220703</ele>
        <time>2012-06-28T16:59:44Z</time>
      </trkpt>
      <trkpt lat="45.37514" lon="3.73414">
        <ele>663.5</ele>
        <time>2012-06-28T16:59:46Z</time>
      </trkpt>
      <trkpt lat="45.37517" lon="3.73422">
        <ele>662.59997558594</ele>
        <time>2012-06-28T16:59:48Z</time>
      </trkpt>
      <trkpt lat="45.37519" lon="3.73428">
        <ele>663.09997558594</ele>
        <time>2012-06-28T16:59:51Z</time>
      </trkpt>
      <trkpt lat="45.37521" lon="3.73438">
        <ele>662.09997558594</ele>
        <time>2012-06-28T16:59:56Z</time>
      </trkpt>
      <trkpt lat="45.37521" lon="3.73445">
        <ele>663.29998779297</ele>
        <time>2012-06-28T16:59:58Z</time>
      </trkpt>
      <trkpt lat="45.37523" lon="3.73454">
        <ele>665.29998779297</ele>
        <time>2012-06-28T17:00:00Z</time>
      </trkpt>
      <trkpt lat="45.37525" lon="3.7346">
        <ele>664.70001220703</ele>
        <time>2012-06-28T17:00:02Z</time>
      </trkpt>
      <trkpt lat="45.37526" lon="3.73466">
        <ele>664.40002441406</ele>
        <time>2012-06-28T17:00:04Z</time>
      </trkpt>
      <trkpt lat="45.37527" lon="3.73473">
        <ele>664.40002441406</ele>
        <time>2012-06-28T17:00:06Z</time>
      </trkpt>
      <trkpt lat="45.37528" lon="3.73482">
        <ele>663.90002441406</ele>
        <time>2012-06-28T17:00:09Z</time>
      </trkpt>
      <trkpt lat="45.37529" lon="3.73489">
        <ele>665.29998779297</ele>
        <time>2012-06-28T17:00:12Z</time>
      </trkpt>
      <trkpt lat="45.3753" lon="3.73496">
        <ele>662.40002441406</ele>
        <time>2012-06-28T17:00:15Z</time>
      </trkpt>
      <trkpt lat="45.37529" lon="3.73521">
        <ele>661.90002441406</ele>
        <time>2012-06-28T17:00:24Z</time>
      </trkpt>
      <trkpt lat="45.37529" lon="3.73529">
        <ele>663.20001220703</ele>
        <time>2012-06-28T17:00:26Z</time>
      </trkpt>
      <trkpt lat="45.37529" lon="3.73536">
        <ele>663.90002441406</ele>
        <time>2012-06-28T17:00:28Z</time>
      </trkpt>
      <trkpt lat="45.37528" lon="3.73545">
        <ele>663.5</ele>
        <time>2012-06-28T17:00:31Z</time>
      </trkpt>
      <trkpt lat="45.37528" lon="3.73552">
        <ele>662.79998779297</ele>
        <time>2012-06-28T17:00:33Z</time>
      </trkpt>
      <trkpt lat="45.37529" lon="3.73561">
        <ele>662.90002441406</ele>
        <time>2012-06-28T17:00:36Z</time>
      </trkpt>
      <trkpt lat="45.37529" lon="3.73568">
        <ele>663.20001220703</ele>
        <time>2012-06-28T17:00:38Z</time>
      </trkpt>
      <trkpt lat="45.37531" lon="3.73575">
        <ele>663.90002441406</ele>
        <time>2012-06-28T17:00:40Z</time>
      </trkpt>
      <trkpt lat="45.37531" lon="3.73584">
        <ele>664.90002441406</ele>
        <time>2012-06-28T17:00:43Z</time>
      </trkpt>
      <trkpt lat="45.37532" lon="3.7359">
        <ele>665</ele>
        <time>2012-06-28T17:00:45Z</time>
      </trkpt>
      <trkpt lat="45.37533" lon="3.73597">
        <ele>665.79998779297</ele>
        <time>2012-06-28T17:00:47Z</time>
      </trkpt>
      <trkpt lat="45.37535" lon="3.73605">
        <ele>666.40002441406</ele>
        <time>2012-06-28T17:00:50Z</time>
      </trkpt>
      <trkpt lat="45.37537" lon="3.73612">
        <ele>666</ele>
        <time>2012-06-28T17:00:52Z</time>
      </trkpt>
      <trkpt lat="45.37539" lon="3.73618">
        <ele>666.09997558594</ele>
        <time>2012-06-28T17:00:54Z</time>
      </trkpt>
      <trkpt lat="45.37542" lon="3.73626">
        <ele>664.59997558594</ele>
        <time>2012-06-28T17:00:57Z</time>
      </trkpt>
      <trkpt lat="45.37545" lon="3.73634">
        <ele>665.29998779297</ele>
        <time>2012-06-28T17:01:00Z</time>
      </trkpt>
      <trkpt lat="45.37548" lon="3.7364">
        <ele>665.70001220703</ele>
        <time>2012-06-28T17:01:02Z</time>
      </trkpt>
      <trkpt lat="45.37551" lon="3.7365">
        <ele>666.90002441406</ele>
        <time>2012-06-28T17:01:06Z</time>
      </trkpt>
      <trkpt lat="45.37554" lon="3.73656">
        <ele>666.5</ele>
        <time>2012-06-28T17:01:08Z</time>
      </trkpt>
      <trkpt lat="45.37555" lon="3.73662">
        <ele>666.90002441406</ele>
        <time>2012-06-28T17:01:10Z</time>
      </trkpt>
      <trkpt lat="45.37559" lon="3.73668">
        <ele>666.5</ele>
        <time>2012-06-28T17:01:12Z</time>
      </trkpt>
      <trkpt lat="45.37563" lon="3.73675">
        <ele>666</ele>
        <time>2012-06-28T17:01:15Z</time>
      </trkpt>
      <trkpt lat="45.37567" lon="3.73682">
        <ele>665.09997558594</ele>
        <time>2012-06-28T17:01:18Z</time>
      </trkpt>
      <trkpt lat="45.37575" lon="3.73702">
        <ele>662.90002441406</ele>
        <time>2012-06-28T17:01:26Z</time>
      </trkpt>
      <trkpt lat="45.37578" lon="3.73708">
        <ele>664</ele>
        <time>2012-06-28T17:01:28Z</time>
      </trkpt>
      <trkpt lat="45.37583" lon="3.73716">
        <ele>663.90002441406</ele>
        <time>2012-06-28T17:01:31Z</time>
      </trkpt>
      <trkpt lat="45.37585" lon="3.73722">
        <ele>663.70001220703</ele>
        <time>2012-06-28T17:01:33Z</time>
      </trkpt>
      <trkpt lat="45.37587" lon="3.73728">
        <ele>663.09997558594</ele>
        <time>2012-06-28T17:01:35Z</time>
      </trkpt>
      <trkpt lat="45.37591" lon="3.73734">
        <ele>662.09997558594</ele>
        <time>2012-06-28T17:01:38Z</time>
      </trkpt>
      <trkpt lat="45.37595" lon="3.7374">
        <ele>661.5</ele>
        <time>2012-06-28T17:01:41Z</time>
      </trkpt>
      <trkpt lat="45.37594" lon="3.73747">
        <ele>663.90002441406</ele>
        <time>2012-06-28T17:01:47Z</time>
      </trkpt>
      <trkpt lat="45.37596" lon="3.73753">
        <ele>661.5</ele>
        <time>2012-06-28T17:01:52Z</time>
      </trkpt>
      <trkpt lat="45.37601" lon="3.73757">
        <ele>659.70001220703</ele>
        <time>2012-06-28T17:01:54Z</time>
      </trkpt>
      <trkpt lat="45.37603" lon="3.73763">
        <ele>657.59997558594</ele>
        <time>2012-06-28T17:01:57Z</time>
      </trkpt>
      <trkpt lat="45.37607" lon="3.73768">
        <ele>657.09997558594</ele>
        <time>2012-06-28T17:02:00Z</time>
      </trkpt>
      <trkpt lat="45.37609" lon="3.73782">
        <ele>656.59997558594</ele>
        <time>2012-06-28T17:02:07Z</time>
      </trkpt>
      <trkpt lat="45.37611" lon="3.73788">
        <ele>656.79998779297</ele>
        <time>2012-06-28T17:02:10Z</time>
      </trkpt>
      <trkpt lat="45.37612" lon="3.73797">
        <ele>657.09997558594</ele>
        <time>2012-06-28T17:02:13Z</time>
      </trkpt>
      <trkpt lat="45.37614" lon="3.73806">
        <ele>656.20001220703</ele>
        <time>2012-06-28T17:02:16Z</time>
      </trkpt>
      <trkpt lat="45.37615" lon="3.73815">
        <ele>655.79998779297</ele>
        <time>2012-06-28T17:02:19Z</time>
      </trkpt>
      <trkpt lat="45.37618" lon="3.73821">
        <ele>655.40002441406</ele>
        <time>2012-06-28T17:02:21Z</time>
      </trkpt>
      <trkpt lat="45.37621" lon="3.73829">
        <ele>655.29998779297</ele>
        <time>2012-06-28T17:02:24Z</time>
      </trkpt>
      <trkpt lat="45.37628" lon="3.73838">
        <ele>655</ele>
        <time>2012-06-28T17:02:27Z</time>
      </trkpt>
      <trkpt lat="45.37633" lon="3.73846">
        <ele>654.79998779297</ele>
        <time>2012-06-28T17:02:29Z</time>
      </trkpt>
      <trkpt lat="45.37644" lon="3.73855">
        <ele>656.40002441406</ele>
        <time>2012-06-28T17:02:33Z</time>
      </trkpt>
      <trkpt lat="45.37651" lon="3.7386">
        <ele>656.79998779297</ele>
        <time>2012-06-28T17:02:35Z</time>
      </trkpt>
      <trkpt lat="45.37655" lon="3.73864">
        <ele>656.5</ele>
        <time>2012-06-28T17:02:37Z</time>
      </trkpt>
      <trkpt lat="45.3766" lon="3.73869">
        <ele>655.79998779297</ele>
        <time>2012-06-28T17:02:39Z</time>
      </trkpt>
      <trkpt lat="45.37664" lon="3.73872">
        <ele>657.20001220703</ele>
        <time>2012-06-28T17:02:41Z</time>
      </trkpt>
      <trkpt lat="45.37666" lon="3.73883">
        <ele>657.59997558594</ele>
        <time>2012-06-28T17:02:45Z</time>
      </trkpt>
      <trkpt lat="45.37668" lon="3.7389">
        <ele>660.29998779297</ele>
        <time>2012-06-28T17:02:49Z</time>
      </trkpt>
      <trkpt lat="45.37674" lon="3.73897">
        <ele>661.29998779297</ele>
        <time>2012-06-28T17:02:52Z</time>
      </trkpt>
      <trkpt lat="45.37676" lon="3.73904">
        <ele>660.59997558594</ele>
        <time>2012-06-28T17:02:55Z</time>
      </trkpt>
      <trkpt lat="45.37677" lon="3.73913">
        <ele>660.79998779297</ele>
        <time>2012-06-28T17:02:58Z</time>
      </trkpt>
      <trkpt lat="45.37678" lon="3.73921">
        <ele>660.79998779297</ele>
        <time>2012-06-28T17:03:01Z</time>
      </trkpt>
      <trkpt lat="45.37681" lon="3.73929">
        <ele>659.90002441406</ele>
        <time>2012-06-28T17:03:04Z</time>
      </trkpt>
      <trkpt lat="45.37699" lon="3.73936">
        <ele>660.79998779297</ele>
        <time>2012-06-28T17:03:08Z</time>
      </trkpt>
      <trkpt lat="45.37701" lon="3.73943">
        <ele>663.40002441406</ele>
        <time>2012-06-28T17:03:11Z</time>
      </trkpt>
      <trkpt lat="45.37703" lon="3.7395">
        <ele>665.20001220703</ele>
        <time>2012-06-28T17:03:13Z</time>
      </trkpt>
      <trkpt lat="45.37709" lon="3.73963">
        <ele>666</ele>
        <time>2012-06-28T17:03:18Z</time>
      </trkpt>
      <trkpt lat="45.37713" lon="3.7397">
        <ele>666.29998779297</ele>
        <time>2012-06-28T17:03:21Z</time>
      </trkpt>
      <trkpt lat="45.37718" lon="3.73976">
        <ele>667.40002441406</ele>
        <time>2012-06-28T17:03:24Z</time>
      </trkpt>
      <trkpt lat="45.37723" lon="3.73984">
        <ele>665</ele>
        <time>2012-06-28T17:03:28Z</time>
      </trkpt>
      <trkpt lat="45.37724" lon="3.73994">
        <ele>664.29998779297</ele>
        <time>2012-06-28T17:03:33Z</time>
      </trkpt>
      <trkpt lat="45.37728" lon="3.74002">
        <ele>664.29998779297</ele>
        <time>2012-06-28T17:03:36Z</time>
      </trkpt>
      <trkpt lat="45.37731" lon="3.74009">
        <ele>664.70001220703</ele>
        <time>2012-06-28T17:03:39Z</time>
      </trkpt>
      <trkpt lat="45.37732" lon="3.74015">
        <ele>664.79998779297</ele>
        <time>2012-06-28T17:03:43Z</time>
      </trkpt>
      <trkpt lat="45.37735" lon="3.7402">
        <ele>666</ele>
        <time>2012-06-28T17:03:53Z</time>
      </trkpt>
      <trkpt lat="45.3774" lon="3.74027">
        <ele>666</ele>
        <time>2012-06-28T17:03:55Z</time>
      </trkpt>
      <trkpt lat="45.37743" lon="3.74034">
        <ele>667.29998779297</ele>
        <time>2012-06-28T17:03:59Z</time>
      </trkpt>
      <trkpt lat="45.37748" lon="3.74041">
        <ele>667.59997558594</ele>
        <time>2012-06-28T17:04:05Z</time>
      </trkpt>
      <trkpt lat="45.37748" lon="3.74049">
        <ele>666.70001220703</ele>
        <time>2012-06-28T17:04:10Z</time>
      </trkpt>
      <trkpt lat="45.37751" lon="3.74054">
        <ele>666</ele>
        <time>2012-06-28T17:04:13Z</time>
      </trkpt>
      <trkpt lat="45.37754" lon="3.74059">
        <ele>665.70001220703</ele>
        <time>2012-06-28T17:04:15Z</time>
      </trkpt>
      <trkpt lat="45.37758" lon="3.74063">
        <ele>666.20001220703</ele>
        <time>2012-06-28T17:04:17Z</time>
      </trkpt>
      <trkpt lat="45.3776" lon="3.74069">
        <ele>666.70001220703</ele>
        <time>2012-06-28T17:04:19Z</time>
      </trkpt>
      <trkpt lat="45.37762" lon="3.74075">
        <ele>667.29998779297</ele>
        <time>2012-06-28T17:04:22Z</time>
      </trkpt>
      <trkpt lat="45.37765" lon="3.74081">
        <ele>668.29998779297</ele>
        <time>2012-06-28T17:04:25Z</time>
      </trkpt>
      <trkpt lat="45.37769" lon="3.74087">
        <ele>668.5</ele>
        <time>2012-06-28T17:04:28Z</time>
      </trkpt>
      <trkpt lat="45.37772" lon="3.74093">
        <ele>668.59997558594</ele>
        <time>2012-06-28T17:04:31Z</time>
      </trkpt>
      <trkpt lat="45.37774" lon="3.74099">
        <ele>668.29998779297</ele>
        <time>2012-06-28T17:04:33Z</time>
      </trkpt>
      <trkpt lat="45.37775" lon="3.74106">
        <ele>668.59997558594</ele>
        <time>2012-06-28T17:04:36Z</time>
      </trkpt>
      <trkpt lat="45.37778" lon="3.74114">
        <ele>668.29998779297</ele>
        <time>2012-06-28T17:04:39Z</time>
      </trkpt>
      <trkpt lat="45.37778" lon="3.74122">
        <ele>669.29998779297</ele>
        <time>2012-06-28T17:04:42Z</time>
      </trkpt>
      <trkpt lat="45.3778" lon="3.74128">
        <ele>667.79998779297</ele>
        <time>2012-06-28T17:04:48Z</time>
      </trkpt>
      <trkpt lat="45.37778" lon="3.74141">
        <ele>666</ele>
        <time>2012-06-28T17:04:54Z</time>
      </trkpt>
      <trkpt lat="45.3778" lon="3.74152">
        <ele>666.09997558594</ele>
        <time>2012-06-28T17:04:56Z</time>
      </trkpt>
      <trkpt lat="45.37783" lon="3.74162">
        <ele>665.79998779297</ele>
        <time>2012-06-28T17:04:58Z</time>
      </trkpt>
      <trkpt lat="45.37785" lon="3.74169">
        <ele>665.09997558594</ele>
        <time>2012-06-28T17:05:00Z</time>
      </trkpt>
      <trkpt lat="45.37788" lon="3.74177">
        <ele>664.20001220703</ele>
        <time>2012-06-28T17:05:02Z</time>
      </trkpt>
      <trkpt lat="45.37791" lon="3.74184">
        <ele>663.40002441406</ele>
        <time>2012-06-28T17:05:04Z</time>
      </trkpt>
      <trkpt lat="45.37793" lon="3.74192">
        <ele>664.79998779297</ele>
        <time>2012-06-28T17:05:07Z</time>
      </trkpt>
      <trkpt lat="45.37796" lon="3.74199">
        <ele>665.59997558594</ele>
        <time>2012-06-28T17:05:09Z</time>
      </trkpt>
      <trkpt lat="45.37797" lon="3.74205">
        <ele>666.29998779297</ele>
        <time>2012-06-28T17:05:11Z</time>
      </trkpt>
      <trkpt lat="45.37799" lon="3.74212">
        <ele>666</ele>
        <time>2012-06-28T17:05:13Z</time>
      </trkpt>
      <trkpt lat="45.378" lon="3.74218">
        <ele>667.70001220703</ele>
        <time>2012-06-28T17:05:14Z</time>
      </trkpt>
      <trkpt lat="45.37802" lon="3.74224">
        <ele>669.70001220703</ele>
        <time>2012-06-28T17:05:16Z</time>
      </trkpt>
      <trkpt lat="45.37804" lon="3.7423">
        <ele>670.09997558594</ele>
        <time>2012-06-28T17:05:18Z</time>
      </trkpt>
      <trkpt lat="45.37805" lon="3.74239">
        <ele>670.5</ele>
        <time>2012-06-28T17:05:21Z</time>
      </trkpt>
      <trkpt lat="45.37807" lon="3.74253">
        <ele>670.5</ele>
        <time>2012-06-28T17:05:26Z</time>
      </trkpt>
      <trkpt lat="45.37808" lon="3.74271">
        <ele>670.70001220703</ele>
        <time>2012-06-28T17:05:31Z</time>
      </trkpt>
      <trkpt lat="45.37808" lon="3.74279">
        <ele>670.90002441406</ele>
        <time>2012-06-28T17:05:34Z</time>
      </trkpt>
      <trkpt lat="45.3781" lon="3.74295">
        <ele>666.29998779297</ele>
        <time>2012-06-28T17:05:40Z</time>
      </trkpt>
      <trkpt lat="45.37811" lon="3.74303">
        <ele>664</ele>
        <time>2012-06-28T17:05:43Z</time>
      </trkpt>
      <trkpt lat="45.37814" lon="3.74311">
        <ele>663.20001220703</ele>
        <time>2012-06-28T17:05:46Z</time>
      </trkpt>
      <trkpt lat="45.37817" lon="3.74317">
        <ele>664.20001220703</ele>
        <time>2012-06-28T17:05:48Z</time>
      </trkpt>
      <trkpt lat="45.37819" lon="3.74326">
        <ele>666</ele>
        <time>2012-06-28T17:05:50Z</time>
      </trkpt>
      <trkpt lat="45.37822" lon="3.74334">
        <ele>665.90002441406</ele>
        <time>2012-06-28T17:05:53Z</time>
      </trkpt>
      <trkpt lat="45.37827" lon="3.74341">
        <ele>666.29998779297</ele>
        <time>2012-06-28T17:05:56Z</time>
      </trkpt>
      <trkpt lat="45.3784" lon="3.74371">
        <ele>667.70001220703</ele>
        <time>2012-06-28T17:06:08Z</time>
      </trkpt>
      <trkpt lat="45.37836" lon="3.74376">
        <ele>667.79998779297</ele>
        <time>2012-06-28T17:06:09Z</time>
      </trkpt>
      <trkpt lat="45.37839" lon="3.74387">
        <ele>667.40002441406</ele>
        <time>2012-06-28T17:06:13Z</time>
      </trkpt>
      <trkpt lat="45.3784" lon="3.74394">
        <ele>666.40002441406</ele>
        <time>2012-06-28T17:06:15Z</time>
      </trkpt>
      <trkpt lat="45.37829" lon="3.744">
        <ele>667.70001220703</ele>
        <time>2012-06-28T17:06:17Z</time>
      </trkpt>
      <trkpt lat="45.37831" lon="3.7441">
        <ele>669.70001220703</ele>
        <time>2012-06-28T17:06:20Z</time>
      </trkpt>
      <trkpt lat="45.37834" lon="3.74416">
        <ele>670.79998779297</ele>
        <time>2012-06-28T17:06:22Z</time>
      </trkpt>
      <trkpt lat="45.37836" lon="3.74425">
        <ele>663.20001220703</ele>
        <time>2012-06-28T17:06:25Z</time>
      </trkpt>
      <trkpt lat="45.37837" lon="3.74434">
        <ele>665.59997558594</ele>
        <time>2012-06-28T17:06:28Z</time>
      </trkpt>
      <trkpt lat="45.37841" lon="3.7444">
        <ele>662.5</ele>
        <time>2012-06-28T17:06:31Z</time>
      </trkpt>
      <trkpt lat="45.37844" lon="3.74445">
        <ele>659.5</ele>
        <time>2012-06-28T17:06:33Z</time>
      </trkpt>
      <trkpt lat="45.37851" lon="3.74459">
        <ele>659.09997558594</ele>
        <time>2012-06-28T17:06:38Z</time>
      </trkpt>
      <trkpt lat="45.37855" lon="3.74466">
        <ele>659</ele>
        <time>2012-06-28T17:06:41Z</time>
      </trkpt>
      <trkpt lat="45.37858" lon="3.7447">
        <ele>659</ele>
        <time>2012-06-28T17:06:43Z</time>
      </trkpt>
      <trkpt lat="45.37861" lon="3.74477">
        <ele>658.59997558594</ele>
        <time>2012-06-28T17:06:45Z</time>
      </trkpt>
      <trkpt lat="45.37863" lon="3.74485">
        <ele>658.90002441406</ele>
        <time>2012-06-28T17:06:47Z</time>
      </trkpt>
      <trkpt lat="45.37866" lon="3.7449">
        <ele>658.5</ele>
        <time>2012-06-28T17:06:49Z</time>
      </trkpt>
      <trkpt lat="45.37873" lon="3.74503">
        <ele>659.90002441406</ele>
        <time>2012-06-28T17:06:54Z</time>
      </trkpt>
      <trkpt lat="45.37882" lon="3.74515">
        <ele>659.29998779297</ele>
        <time>2012-06-28T17:07:00Z</time>
      </trkpt>
      <trkpt lat="45.37884" lon="3.74521">
        <ele>659.20001220703</ele>
        <time>2012-06-28T17:07:02Z</time>
      </trkpt>
      <trkpt lat="45.37887" lon="3.74526">
        <ele>659.29998779297</ele>
        <time>2012-06-28T17:07:04Z</time>
      </trkpt>
      <trkpt lat="45.37893" lon="3.74528">
        <ele>660.70001220703</ele>
        <time>2012-06-28T17:07:05Z</time>
      </trkpt>
      <trkpt lat="45.37897" lon="3.74533">
        <ele>661.59997558594</ele>
        <time>2012-06-28T17:07:07Z</time>
      </trkpt>
      <trkpt lat="45.379" lon="3.74538">
        <ele>661.59997558594</ele>
        <time>2012-06-28T17:07:09Z</time>
      </trkpt>
      <trkpt lat="45.37903" lon="3.74543">
        <ele>662.29998779297</ele>
        <time>2012-06-28T17:07:11Z</time>
      </trkpt>
      <trkpt lat="45.37904" lon="3.7455">
        <ele>662.29998779297</ele>
        <time>2012-06-28T17:07:14Z</time>
      </trkpt>
      <trkpt lat="45.37907" lon="3.74556">
        <ele>662.5</ele>
        <time>2012-06-28T17:07:17Z</time>
      </trkpt>
      <trkpt lat="45.37917" lon="3.74571">
        <ele>659.5</ele>
        <time>2012-06-28T17:07:25Z</time>
      </trkpt>
      <trkpt lat="45.37921" lon="3.74577">
        <ele>660.29998779297</ele>
        <time>2012-06-28T17:07:27Z</time>
      </trkpt>
      <trkpt lat="45.37924" lon="3.74582">
        <ele>661</ele>
        <time>2012-06-28T17:07:31Z</time>
      </trkpt>
      <trkpt lat="45.37929" lon="3.7459">
        <ele>659.90002441406</ele>
        <time>2012-06-28T17:07:34Z</time>
      </trkpt>
      <trkpt lat="45.37933" lon="3.74596">
        <ele>659.09997558594</ele>
        <time>2012-06-28T17:07:37Z</time>
      </trkpt>
      <trkpt lat="45.37937" lon="3.74599">
        <ele>658.70001220703</ele>
        <time>2012-06-28T17:07:39Z</time>
      </trkpt>
      <trkpt lat="45.37942" lon="3.74608">
        <ele>655.79998779297</ele>
        <time>2012-06-28T17:07:41Z</time>
      </trkpt>
      <trkpt lat="45.37952" lon="3.74617">
        <ele>657.79998779297</ele>
        <time>2012-06-28T17:07:46Z</time>
      </trkpt>
      <trkpt lat="45.37956" lon="3.74623">
        <ele>656.79998779297</ele>
        <time>2012-06-28T17:07:48Z</time>
      </trkpt>
      <trkpt lat="45.3796" lon="3.74627">
        <ele>657</ele>
        <time>2012-06-28T17:07:51Z</time>
      </trkpt>
      <trkpt lat="45.37965" lon="3.74632">
        <ele>657.09997558594</ele>
        <time>2012-06-28T17:07:55Z</time>
      </trkpt>
      <trkpt lat="45.37966" lon="3.7464">
        <ele>658.5</ele>
        <time>2012-06-28T17:07:58Z</time>
      </trkpt>
      <trkpt lat="45.37972" lon="3.74648">
        <ele>658.70001220703</ele>
        <time>2012-06-28T17:08:00Z</time>
      </trkpt>
      <trkpt lat="45.37975" lon="3.74654">
        <ele>660.79998779297</ele>
        <time>2012-06-28T17:08:01Z</time>
      </trkpt>
      <trkpt lat="45.3798" lon="3.74663">
        <ele>660.5</ele>
        <time>2012-06-28T17:08:04Z</time>
      </trkpt>
      <trkpt lat="45.37984" lon="3.74668">
        <ele>659.90002441406</ele>
        <time>2012-06-28T17:08:06Z</time>
      </trkpt>
      <trkpt lat="45.37996" lon="3.74683">
        <ele>657.79998779297</ele>
        <time>2012-06-28T17:08:14Z</time>
      </trkpt>
      <trkpt lat="45.38" lon="3.74689">
        <ele>658.20001220703</ele>
        <time>2012-06-28T17:08:16Z</time>
      </trkpt>
      <trkpt lat="45.38002" lon="3.74696">
        <ele>658.20001220703</ele>
        <time>2012-06-28T17:08:18Z</time>
      </trkpt>
      <trkpt lat="45.38006" lon="3.74701">
        <ele>658.70001220703</ele>
        <time>2012-06-28T17:08:20Z</time>
      </trkpt>
      <trkpt lat="45.38011" lon="3.74705">
        <ele>659</ele>
        <time>2012-06-28T17:08:22Z</time>
      </trkpt>
      <trkpt lat="45.38014" lon="3.7471">
        <ele>658.90002441406</ele>
        <time>2012-06-28T17:08:24Z</time>
      </trkpt>
      <trkpt lat="45.38017" lon="3.74714">
        <ele>658.90002441406</ele>
        <time>2012-06-28T17:08:26Z</time>
      </trkpt>
      <trkpt lat="45.3802" lon="3.74719">
        <ele>658.40002441406</ele>
        <time>2012-06-28T17:08:28Z</time>
      </trkpt>
      <trkpt lat="45.38024" lon="3.74725">
        <ele>657.70001220703</ele>
        <time>2012-06-28T17:08:30Z</time>
      </trkpt>
      <trkpt lat="45.38028" lon="3.74729">
        <ele>657.70001220703</ele>
        <time>2012-06-28T17:08:32Z</time>
      </trkpt>
      <trkpt lat="45.38032" lon="3.74734">
        <ele>656.59997558594</ele>
        <time>2012-06-28T17:08:35Z</time>
      </trkpt>
      <trkpt lat="45.38038" lon="3.7474">
        <ele>655.20001220703</ele>
        <time>2012-06-28T17:08:38Z</time>
      </trkpt>
      <trkpt lat="45.38044" lon="3.74747">
        <ele>654.20001220703</ele>
        <time>2012-06-28T17:08:42Z</time>
      </trkpt>
      <trkpt lat="45.38049" lon="3.74752">
        <ele>652.20001220703</ele>
        <time>2012-06-28T17:08:45Z</time>
      </trkpt>
      <trkpt lat="45.38054" lon="3.74758">
        <ele>652</ele>
        <time>2012-06-28T17:08:48Z</time>
      </trkpt>
      <trkpt lat="45.38059" lon="3.74761">
        <ele>652.20001220703</ele>
        <time>2012-06-28T17:08:50Z</time>
      </trkpt>
      <trkpt lat="45.38064" lon="3.74765">
        <ele>652.29998779297</ele>
        <time>2012-06-28T17:08:53Z</time>
      </trkpt>
      <trkpt lat="45.38074" lon="3.74774">
        <ele>652.90002441406</ele>
        <time>2012-06-28T17:08:58Z</time>
      </trkpt>
      <trkpt lat="45.38079" lon="3.74778">
        <ele>652.90002441406</ele>
        <time>2012-06-28T17:09:01Z</time>
      </trkpt>
      <trkpt lat="45.38085" lon="3.7478">
        <ele>652.70001220703</ele>
        <time>2012-06-28T17:09:05Z</time>
      </trkpt>
      <trkpt lat="45.38088" lon="3.74784">
        <ele>652.5</ele>
        <time>2012-06-28T17:09:12Z</time>
      </trkpt>
      <trkpt lat="45.38092" lon="3.7479">
        <ele>654.79998779297</ele>
        <time>2012-06-28T17:09:17Z</time>
      </trkpt>
      <trkpt lat="45.38092" lon="3.74797">
        <ele>659.79998779297</ele>
        <time>2012-06-28T17:09:23Z</time>
      </trkpt>
      <trkpt lat="45.381" lon="3.74807">
        <ele>659.5</ele>
        <time>2012-06-28T17:09:32Z</time>
      </trkpt>
      <trkpt lat="45.38103" lon="3.74812">
        <ele>659.29998779297</ele>
        <time>2012-06-28T17:09:35Z</time>
      </trkpt>
      <trkpt lat="45.38106" lon="3.74818">
        <ele>658.20001220703</ele>
        <time>2012-06-28T17:09:37Z</time>
      </trkpt>
      <trkpt lat="45.3811" lon="3.74824">
        <ele>660</ele>
        <time>2012-06-28T17:09:40Z</time>
      </trkpt>
    </trkseg>
  </trk>
</gpx>